sensor_id;sensor_type;location;lat;lon;timestamp;temperature;humidity
68719;DHT22;55696;52.138;5.444;2023-06-14T00:00:14;23.00;35.80
68719;DHT22;55696;52.138;5.444;2023-06-14T00:02:42;22.90;36.10
68719;DHT22;55696;52.138;5.444;2023-06-14T00:05:09;22.70;35.90
68719;DHT22;55696;52.138;5.444;2023-06-14T00:07:39;23.10;35.90
68719;DHT22;55696;52.138;5.444;2023-06-14T00:10:11;23.20;36.00
68719;DHT22;55696;52.138;5.444;2023-06-14T00:12:38;22.80;35.70
68719;DHT22;55696;52.138;5.444;2023-06-14T00:15:07;23.00;35.80
68719;DHT22;55696;52.138;5.444;2023-06-14T00:17:33;23.00;36.00
68719;DHT22;55696;52.138;5.444;2023-06-14T00:20:02;22.90;35.90
68719;DHT22;55696;52.138;5.444;2023-06-14T00:22:31;23.00;36.10
68719;DHT22;55696;52.138;5.444;2023-06-14T00:24:59;23.10;36.00
68719;DHT22;55696;52.138;5.444;2023-06-14T00:27:37;23.30;36.10
68719;DHT22;55696;52.138;5.444;2023-06-14T00:30:04;23.00;35.80
68719;DHT22;55696;52.138;5.444;2023-06-14T00:32:32;23.00;35.70
68719;DHT22;55696;52.138;5.444;2023-06-14T00:34:59;22.90;35.70
68719;DHT22;55696;52.138;5.444;2023-06-14T00:37:26;22.90;36.00
68719;DHT22;55696;52.138;5.444;2023-06-14T00:39:53;22.90;35.90
68719;DHT22;55696;52.138;5.444;2023-06-14T00:42:24;22.90;35.80
68719;DHT22;55696;52.138;5.444;2023-06-14T00:44:51;22.80;36.00
68719;DHT22;55696;52.138;5.444;2023-06-14T00:47:18;22.80;36.90
68719;DHT22;55696;52.138;5.444;2023-06-14T00:49:47;22.80;36.00
68719;DHT22;55696;52.138;5.444;2023-06-14T00:52:15;22.70;36.10
68719;DHT22;55696;52.138;5.444;2023-06-14T00:54:43;22.80;36.10
68719;DHT22;55696;52.138;5.444;2023-06-14T00:57:11;22.70;36.00
68719;DHT22;55696;52.138;5.444;2023-06-14T00:59:45;22.70;36.00
68719;DHT22;55696;52.138;5.444;2023-06-14T01:02:13;22.80;36.10
68719;DHT22;55696;52.138;5.444;2023-06-14T01:04:43;22.70;36.40
68719;DHT22;55696;52.138;5.444;2023-06-14T01:15:08;22.70;36.70
68719;DHT22;55696;52.138;5.444;2023-06-14T01:17:36;22.90;37.10
68719;DHT22;55696;52.138;5.444;2023-06-14T01:20:12;22.60;36.90
68719;DHT22;55696;52.138;5.444;2023-06-14T01:22:52;22.60;36.90
68719;DHT22;55696;52.138;5.444;2023-06-14T01:25:20;22.50;36.90
68719;DHT22;55696;52.138;5.444;2023-06-14T01:28:06;22.60;36.90
68719;DHT22;55696;52.138;5.444;2023-06-14T01:30:39;22.50;36.80
68719;DHT22;55696;52.138;5.444;2023-06-14T01:33:09;22.40;36.90
68719;DHT22;55696;52.138;5.444;2023-06-14T01:35:36;22.20;36.80
68719;DHT22;55696;52.138;5.444;2023-06-14T01:38:03;22.20;37.20
68719;DHT22;55696;52.138;5.444;2023-06-14T01:40:34;22.90;37.90
68719;DHT22;55696;52.138;5.444;2023-06-14T01:43:02;22.20;37.50
68719;DHT22;55696;52.138;5.444;2023-06-14T01:45:30;22.20;37.40
68719;DHT22;55696;52.138;5.444;2023-06-14T01:47:58;22.10;37.60
68719;DHT22;55696;52.138;5.444;2023-06-14T01:50:28;22.10;37.50
68719;DHT22;55696;52.138;5.444;2023-06-14T01:52:57;22.40;37.60
68719;DHT22;55696;52.138;5.444;2023-06-14T01:55:24;22.00;37.40
68719;DHT22;55696;52.138;5.444;2023-06-14T01:57:54;22.10;37.50
68719;DHT22;55696;52.138;5.444;2023-06-14T02:00:21;22.10;37.80
68719;DHT22;55696;52.138;5.444;2023-06-14T02:02:48;21.80;37.80
68719;DHT22;55696;52.138;5.444;2023-06-14T02:05:15;21.70;37.90
68719;DHT22;55696;52.138;5.444;2023-06-14T02:07:45;21.70;38.10
68719;DHT22;55696;52.138;5.444;2023-06-14T02:10:15;21.60;38.20
68719;DHT22;55696;52.138;5.444;2023-06-14T02:12:44;21.50;38.10
68719;DHT22;55696;52.138;5.444;2023-06-14T02:15:10;21.30;38.10
68719;DHT22;55696;52.138;5.444;2023-06-14T02:17:44;21.40;38.40
68719;DHT22;55696;52.138;5.444;2023-06-14T02:20:11;21.40;38.70
68719;DHT22;55696;52.138;5.444;2023-06-14T02:22:40;21.30;38.90
68719;DHT22;55696;52.138;5.444;2023-06-14T02:25:07;21.10;39.10
68719;DHT22;55696;52.138;5.444;2023-06-14T02:27:35;21.20;39.40
68719;DHT22;55696;52.138;5.444;2023-06-14T02:30:03;21.00;39.50
68719;DHT22;55696;52.138;5.444;2023-06-14T02:32:32;21.00;39.80
68719;DHT22;55696;52.138;5.444;2023-06-14T02:35:01;21.00;40.00
68719;DHT22;55696;52.138;5.444;2023-06-14T02:37:28;20.90;40.10
68719;DHT22;55696;52.138;5.444;2023-06-14T02:39:56;20.90;40.20
68719;DHT22;55696;52.138;5.444;2023-06-14T02:42:23;20.60;40.10
68719;DHT22;55696;52.138;5.444;2023-06-14T02:44:50;20.70;40.30
68719;DHT22;55696;52.138;5.444;2023-06-14T02:47:18;20.80;40.50
68719;DHT22;55696;52.138;5.444;2023-06-14T02:49:46;20.70;40.60
68719;DHT22;55696;52.138;5.444;2023-06-14T02:52:16;20.70;40.60
68719;DHT22;55696;52.138;5.444;2023-06-14T02:54:42;20.70;40.70
68719;DHT22;55696;52.138;5.444;2023-06-14T02:57:10;20.70;40.70
68719;DHT22;55696;52.138;5.444;2023-06-14T02:59:38;20.60;41.00
68719;DHT22;55696;52.138;5.444;2023-06-14T03:02:05;20.60;41.10
68719;DHT22;55696;52.138;5.444;2023-06-14T03:04:33;20.50;41.20
68719;DHT22;55696;52.138;5.444;2023-06-14T03:07:08;20.40;41.30
68719;DHT22;55696;52.138;5.444;2023-06-14T03:09:38;20.20;41.30
68719;DHT22;55696;52.138;5.444;2023-06-14T03:12:07;20.20;41.40
68719;DHT22;55696;52.138;5.444;2023-06-14T03:14:35;20.30;41.60
68719;DHT22;55696;52.138;5.444;2023-06-14T03:17:03;20.20;41.50
68719;DHT22;55696;52.138;5.444;2023-06-14T03:19:33;20.30;41.70
68719;DHT22;55696;52.138;5.444;2023-06-14T03:22:01;20.10;41.80
68719;DHT22;55696;52.138;5.444;2023-06-14T03:24:30;20.00;42.00
68719;DHT22;55696;52.138;5.444;2023-06-14T03:27:08;20.80;42.70
68719;DHT22;55696;52.138;5.444;2023-06-14T03:29:38;20.00;42.50
68719;DHT22;55696;52.138;5.444;2023-06-14T03:32:07;20.00;42.60
68719;DHT22;55696;52.138;5.444;2023-06-14T03:34:37;20.00;42.70
68719;DHT22;55696;52.138;5.444;2023-06-14T03:37:12;19.60;42.50
68719;DHT22;55696;52.138;5.444;2023-06-14T03:39:39;19.90;42.90
68719;DHT22;55696;52.138;5.444;2023-06-14T03:42:16;20.50;43.50
68719;DHT22;55696;52.138;5.444;2023-06-14T03:44:44;19.60;43.30
68719;DHT22;55696;52.138;5.444;2023-06-14T03:47:11;20.00;43.90
68719;DHT22;55696;52.138;5.444;2023-06-14T03:49:38;19.60;43.90
68719;DHT22;55696;52.138;5.444;2023-06-14T03:52:05;19.70;43.90
68719;DHT22;55696;52.138;5.444;2023-06-14T03:54:34;19.70;43.90
68719;DHT22;55696;52.138;5.444;2023-06-14T03:57:04;19.70;43.90
68719;DHT22;55696;52.138;5.444;2023-06-14T03:59:31;19.70;43.90
68719;DHT22;55696;52.138;5.444;2023-06-14T04:01:58;19.60;43.70
68719;DHT22;55696;52.138;5.444;2023-06-14T04:04:25;19.60;43.70
68719;DHT22;55696;52.138;5.444;2023-06-14T04:06:56;19.60;43.80
68719;DHT22;55696;52.138;5.444;2023-06-14T04:09:25;19.70;43.80
68719;DHT22;55696;52.138;5.444;2023-06-14T04:11:52;19.70;43.90
68719;DHT22;55696;52.138;5.444;2023-06-14T04:14:19;20.30;44.50
68719;DHT22;55696;52.138;5.444;2023-06-14T04:16:47;19.80;43.90
68719;DHT22;55696;52.138;5.444;2023-06-14T04:19:16;20.50;44.20
68719;DHT22;55696;52.138;5.444;2023-06-14T04:21:43;19.70;43.70
68719;DHT22;55696;52.138;5.444;2023-06-14T04:24:10;19.80;43.80
68719;DHT22;55696;52.138;5.444;2023-06-14T04:26:44;19.80;43.80
68719;DHT22;55696;52.138;5.444;2023-06-14T04:29:18;20.00;44.10
68719;DHT22;55696;52.138;5.444;2023-06-14T04:31:53;20.00;44.10
68719;DHT22;55696;52.138;5.444;2023-06-14T04:34:23;19.90;43.90
68719;DHT22;55696;52.138;5.444;2023-06-14T04:36:53;20.00;43.80
68719;DHT22;55696;52.138;5.444;2023-06-14T04:39:28;20.00;43.90
68719;DHT22;55696;52.138;5.444;2023-06-14T04:41:56;20.20;44.00
68719;DHT22;55696;52.138;5.444;2023-06-14T04:44:24;20.10;44.00
68719;DHT22;55696;52.138;5.444;2023-06-14T04:46:57;20.20;43.90
68719;DHT22;55696;52.138;5.444;2023-06-14T04:49:25;20.30;44.00
68719;DHT22;55696;52.138;5.444;2023-06-14T04:51:54;20.50;44.20
68719;DHT22;55696;52.138;5.444;2023-06-14T04:54:33;20.20;43.90
68719;DHT22;55696;52.138;5.444;2023-06-14T04:57:02;20.10;44.00
68719;DHT22;55696;52.138;5.444;2023-06-14T04:59:30;20.20;43.90
68719;DHT22;55696;52.138;5.444;2023-06-14T05:01:59;20.40;44.00
68719;DHT22;55696;52.138;5.444;2023-06-14T05:04:27;20.20;44.00
68719;DHT22;55696;52.138;5.444;2023-06-14T05:06:56;20.40;43.90
68719;DHT22;55696;52.138;5.444;2023-06-14T05:09:24;20.50;43.80
68719;DHT22;55696;52.138;5.444;2023-06-14T05:11:51;20.40;43.60
68719;DHT22;55696;52.138;5.444;2023-06-14T05:14:17;20.50;43.70
68719;DHT22;55696;52.138;5.444;2023-06-14T05:16:45;20.80;43.90
68719;DHT22;55696;52.138;5.444;2023-06-14T05:19:12;20.60;43.60
68719;DHT22;55696;52.138;5.444;2023-06-14T05:21:39;21.40;44.00
68719;DHT22;55696;52.138;5.444;2023-06-14T05:24:09;20.80;43.70
68719;DHT22;55696;52.138;5.444;2023-06-14T05:26:36;20.90;43.70
68719;DHT22;55696;52.138;5.444;2023-06-14T05:29:03;20.80;43.70
68719;DHT22;55696;52.138;5.444;2023-06-14T05:31:30;20.90;43.70
68719;DHT22;55696;52.138;5.444;2023-06-14T05:33:57;20.80;43.60
68719;DHT22;55696;52.138;5.444;2023-06-14T05:36:24;21.10;43.60
68719;DHT22;55696;52.138;5.444;2023-06-14T05:38:51;21.20;43.10
68719;DHT22;55696;52.138;5.444;2023-06-14T05:41:27;21.20;42.90
68719;DHT22;55696;52.138;5.444;2023-06-14T05:43:55;21.40;43.00
68719;DHT22;55696;52.138;5.444;2023-06-14T05:46:23;21.40;42.70
68719;DHT22;55696;52.138;5.444;2023-06-14T05:48:53;21.50;42.30
68719;DHT22;55696;52.138;5.444;2023-06-14T05:51:20;21.70;42.20
68719;DHT22;55696;52.138;5.444;2023-06-14T05:53:47;21.70;41.70
68719;DHT22;55696;52.138;5.444;2023-06-14T05:56:15;21.80;41.50
68719;DHT22;55696;52.138;5.444;2023-06-14T05:58:45;22.60;41.70
68719;DHT22;55696;52.138;5.444;2023-06-14T06:01:12;21.90;40.90
68719;DHT22;55696;52.138;5.444;2023-06-14T06:03:40;22.20;40.70
68719;DHT22;55696;52.138;5.444;2023-06-14T06:06:07;22.30;40.50
68719;DHT22;55696;52.138;5.444;2023-06-14T06:08:34;22.40;40.50
68719;DHT22;55696;52.138;5.444;2023-06-14T06:11:01;22.40;40.30
68719;DHT22;55696;52.138;5.444;2023-06-14T06:13:28;22.50;40.10
68719;DHT22;55696;52.138;5.444;2023-06-14T06:15:55;23.30;40.30
68719;DHT22;55696;52.138;5.444;2023-06-14T06:18:22;22.60;39.50
68719;DHT22;55696;52.138;5.444;2023-06-14T06:20:49;22.70;39.20
68719;DHT22;55696;52.138;5.444;2023-06-14T06:23:16;22.60;39.00
68719;DHT22;55696;52.138;5.444;2023-06-14T06:25:43;22.90;38.80
68719;DHT22;55696;52.138;5.444;2023-06-14T06:28:10;23.00;38.70
68719;DHT22;55696;52.138;5.444;2023-06-14T06:30:38;23.00;38.50
68719;DHT22;55696;52.138;5.444;2023-06-14T06:33:05;23.10;38.30
68719;DHT22;55696;52.138;5.444;2023-06-14T06:35:32;23.00;37.90
68719;DHT22;55696;52.138;5.444;2023-06-14T06:38:00;23.10;37.80
68719;DHT22;55696;52.138;5.444;2023-06-14T06:40:27;24.10;38.50
68719;DHT22;55696;52.138;5.444;2023-06-14T06:42:54;23.30;37.90
68719;DHT22;55696;52.138;5.444;2023-06-14T06:45:25;23.40;37.60
68719;DHT22;55696;52.138;5.444;2023-06-14T06:47:51;23.50;37.50
68719;DHT22;55696;52.138;5.444;2023-06-14T06:50:18;23.70;37.50
68719;DHT22;55696;52.138;5.444;2023-06-14T06:52:49;23.70;37.00
68719;DHT22;55696;52.138;5.444;2023-06-14T06:55:16;23.90;36.80
68719;DHT22;55696;52.138;5.444;2023-06-14T06:57:45;23.70;36.80
68719;DHT22;55696;52.138;5.444;2023-06-14T07:00:12;23.90;36.60
68719;DHT22;55696;52.138;5.444;2023-06-14T07:02:40;24.00;36.60
68719;DHT22;55696;52.138;5.444;2023-06-14T07:05:07;24.00;36.60
68719;DHT22;55696;52.138;5.444;2023-06-14T07:07:34;24.20;36.40
68719;DHT22;55696;52.138;5.444;2023-06-14T07:10:02;24.20;35.90
68719;DHT22;55696;52.138;5.444;2023-06-14T07:12:31;24.30;35.70
68719;DHT22;55696;52.138;5.444;2023-06-14T07:15:02;24.40;35.40
68719;DHT22;55696;52.138;5.444;2023-06-14T07:17:30;24.40;35.20
68719;DHT22;55696;52.138;5.444;2023-06-14T07:19:57;24.50;35.20
68719;DHT22;55696;52.138;5.444;2023-06-14T07:22:24;24.60;35.20
68719;DHT22;55696;52.138;5.444;2023-06-14T07:24:51;24.70;35.00
68719;DHT22;55696;52.138;5.444;2023-06-14T07:27:18;24.70;34.90
68719;DHT22;55696;52.138;5.444;2023-06-14T07:29:45;24.80;35.40
68719;DHT22;55696;52.138;5.444;2023-06-14T07:32:11;24.90;35.30
68719;DHT22;55696;52.138;5.444;2023-06-14T07:34:38;25.40;34.50
68719;DHT22;55696;52.138;5.444;2023-06-14T07:37:05;25.00;34.20
68719;DHT22;55696;52.138;5.444;2023-06-14T07:39:32;25.10;34.30
68719;DHT22;55696;52.138;5.444;2023-06-14T07:41:59;25.40;33.90
68719;DHT22;55696;52.138;5.444;2023-06-14T07:44:29;25.10;33.30
68719;DHT22;55696;52.138;5.444;2023-06-14T07:46:56;25.10;33.00
68719;DHT22;55696;52.138;5.444;2023-06-14T07:49:25;25.20;32.60
68719;DHT22;55696;52.138;5.444;2023-06-14T07:51:52;25.20;33.00
68719;DHT22;55696;52.138;5.444;2023-06-14T07:54:20;25.20;33.00
68719;DHT22;55696;52.138;5.444;2023-06-14T07:56:51;25.70;33.20
68719;DHT22;55696;52.138;5.444;2023-06-14T07:59:18;25.50;32.60
68719;DHT22;55696;52.138;5.444;2023-06-14T08:01:45;25.60;32.70
68719;DHT22;55696;52.138;5.444;2023-06-14T08:04:14;25.90;32.80
68719;DHT22;55696;52.138;5.444;2023-06-14T08:06:42;25.70;32.30
68719;DHT22;55696;52.138;5.444;2023-06-14T08:09:13;25.70;32.10
68719;DHT22;55696;52.138;5.444;2023-06-14T08:11:39;26.00;32.10
68719;DHT22;55696;52.138;5.444;2023-06-14T08:14:06;25.90;31.80
68719;DHT22;55696;52.138;5.444;2023-06-14T08:16:33;25.90;31.40
68719;DHT22;55696;52.138;5.444;2023-06-14T08:19:00;26.00;31.40
68719;DHT22;55696;52.138;5.444;2023-06-14T08:21:27;26.00;30.80
68719;DHT22;55696;52.138;5.444;2023-06-14T08:23:57;26.00;31.00
68719;DHT22;55696;52.138;5.444;2023-06-14T08:26:24;26.10;32.10
68719;DHT22;55696;52.138;5.444;2023-06-14T08:28:56;26.20;30.80
68719;DHT22;55696;52.138;5.444;2023-06-14T08:31:23;26.20;30.20
68719;DHT22;55696;52.138;5.444;2023-06-14T08:33:51;26.20;30.10
68719;DHT22;55696;52.138;5.444;2023-06-14T08:36:18;26.20;30.00
68719;DHT22;55696;52.138;5.444;2023-06-14T08:38:44;26.40;30.30
68719;DHT22;55696;52.138;5.444;2023-06-14T08:41:12;26.80;30.60
68719;DHT22;55696;52.138;5.444;2023-06-14T08:43:40;26.50;30.40
68719;DHT22;55696;52.138;5.444;2023-06-14T08:46:07;26.60;30.10
68719;DHT22;55696;52.138;5.444;2023-06-14T08:48:37;26.50;29.90
68719;DHT22;55696;52.138;5.444;2023-06-14T08:51:04;26.70;29.80
68719;DHT22;55696;52.138;5.444;2023-06-14T08:53:32;26.70;29.20
68719;DHT22;55696;52.138;5.444;2023-06-14T08:56:04;26.70;29.00
68719;DHT22;55696;52.138;5.444;2023-06-14T08:58:32;26.70;28.70
68719;DHT22;55696;52.138;5.444;2023-06-14T09:01:04;26.70;28.70
68719;DHT22;55696;52.138;5.444;2023-06-14T09:03:31;26.70;28.60
68719;DHT22;55696;52.138;5.444;2023-06-14T09:06:00;26.70;28.50
68719;DHT22;55696;52.138;5.444;2023-06-14T09:08:28;26.80;29.50
68719;DHT22;55696;52.138;5.444;2023-06-14T09:10:57;26.80;28.40
68719;DHT22;55696;52.138;5.444;2023-06-14T09:13:26;26.80;28.40
68719;DHT22;55696;52.138;5.444;2023-06-14T09:15:57;26.80;28.30
68719;DHT22;55696;52.138;5.444;2023-06-14T09:18:37;26.90;28.40
68719;DHT22;55696;52.138;5.444;2023-06-14T09:21:08;26.90;28.30
68719;DHT22;55696;52.138;5.444;2023-06-14T09:23:44;26.90;28.50
68719;DHT22;55696;52.138;5.444;2023-06-14T09:26:18;26.80;28.30
68719;DHT22;55696;52.138;5.444;2023-06-14T09:28:50;27.40;28.10
68719;DHT22;55696;52.138;5.444;2023-06-14T09:31:20;26.90;28.00
68719;DHT22;55696;52.138;5.444;2023-06-14T09:33:49;27.00;28.10
68719;DHT22;55696;52.138;5.444;2023-06-14T09:38:56;27.10;27.40
68719;DHT22;55696;52.138;5.444;2023-06-14T09:41:33;27.10;27.20
68719;DHT22;55696;52.138;5.444;2023-06-14T09:44:01;27.20;27.00
68719;DHT22;55696;52.138;5.444;2023-06-14T09:46:35;27.20;27.10
68719;DHT22;55696;52.138;5.444;2023-06-14T09:49:03;27.20;27.10
68719;DHT22;55696;52.138;5.444;2023-06-14T09:51:30;27.20;27.20
68719;DHT22;55696;52.138;5.444;2023-06-14T09:54:02;27.30;27.50
68719;DHT22;55696;52.138;5.444;2023-06-14T09:56:35;27.40;27.70
68719;DHT22;55696;52.138;5.444;2023-06-14T09:59:05;27.40;27.70
68719;DHT22;55696;52.138;5.444;2023-06-14T10:01:35;27.50;27.70
68719;DHT22;55696;52.138;5.444;2023-06-14T10:04:07;27.60;27.50
68719;DHT22;55696;52.138;5.444;2023-06-14T10:06:40;27.60;27.50
68719;DHT22;55696;52.138;5.444;2023-06-14T10:09:08;27.70;27.90
68719;DHT22;55696;52.138;5.444;2023-06-14T10:11:36;27.70;26.90
68719;DHT22;55696;52.138;5.444;2023-06-14T10:14:05;27.70;27.40
68719;DHT22;55696;52.138;5.444;2023-06-14T10:16:44;27.70;27.40
68719;DHT22;55696;52.138;5.444;2023-06-14T10:22:43;27.80;26.50
68719;DHT22;55696;52.138;5.444;2023-06-14T10:25:26;28.20;27.00
68719;DHT22;55696;52.138;5.444;2023-06-14T10:28:24;27.90;27.00
68719;DHT22;55696;52.138;5.444;2023-06-14T10:33:35;27.80;26.80
68719;DHT22;55696;52.138;5.444;2023-06-14T10:36:30;27.80;27.10
68719;DHT22;55696;52.138;5.444;2023-06-14T10:38:59;27.90;27.20
68719;DHT22;55696;52.138;5.444;2023-06-14T10:41:28;28.00;26.70
68719;DHT22;55696;52.138;5.444;2023-06-14T10:44:34;28.10;26.90
68719;DHT22;55696;52.138;5.444;2023-06-14T10:47:07;26.20;25.80
68719;DHT22;55696;52.138;5.444;2023-06-14T10:49:45;28.40;26.80
68719;DHT22;55696;52.138;5.444;2023-06-14T10:52:13;28.40;26.60
68719;DHT22;55696;52.138;5.444;2023-06-14T10:55:06;28.60;26.80
68719;DHT22;55696;52.138;5.444;2023-06-14T10:57:47;28.70;26.60
68719;DHT22;55696;52.138;5.444;2023-06-14T11:00:21;28.80;26.60
68719;DHT22;55696;52.138;5.444;2023-06-14T11:08:56;29.00;26.50
68719;DHT22;55696;52.138;5.444;2023-06-14T11:11:32;29.00;26.20
68719;DHT22;55696;52.138;5.444;2023-06-14T11:14:02;28.80;26.40
68719;DHT22;55696;52.138;5.444;2023-06-14T11:16:29;29.00;26.50
68719;DHT22;55696;52.138;5.444;2023-06-14T11:19:01;29.10;26.70
68719;DHT22;55696;52.138;5.444;2023-06-14T11:21:31;29.20;26.40
68719;DHT22;55696;52.138;5.444;2023-06-14T11:23:59;29.20;25.90
68719;DHT22;55696;52.138;5.444;2023-06-14T11:26:30;29.20;25.90
68719;DHT22;55696;52.138;5.444;2023-06-14T11:28:58;29.20;25.70
68719;DHT22;55696;52.138;5.444;2023-06-14T11:31:27;29.30;25.50
68719;DHT22;55696;52.138;5.444;2023-06-14T11:33:56;29.40;25.40
68719;DHT22;55696;52.138;5.444;2023-06-14T11:36:26;29.50;25.60
68719;DHT22;55696;52.138;5.444;2023-06-14T11:39:01;29.50;25.50
68719;DHT22;55696;52.138;5.444;2023-06-14T11:41:47;29.80;25.80
68719;DHT22;55696;52.138;5.444;2023-06-14T11:44:14;30.10;26.00
68719;DHT22;55696;52.138;5.444;2023-06-14T11:46:41;30.30;25.90
68719;DHT22;55696;52.138;5.444;2023-06-14T11:49:08;30.30;25.10
68719;DHT22;55696;52.138;5.444;2023-06-14T11:51:37;30.20;24.80
68719;DHT22;55696;52.138;5.444;2023-06-14T11:54:05;30.10;24.60
68719;DHT22;55696;52.138;5.444;2023-06-14T11:56:33;30.10;25.20
68719;DHT22;55696;52.138;5.444;2023-06-14T11:59:01;30.30;25.80
68719;DHT22;55696;52.138;5.444;2023-06-14T12:01:30;30.50;24.40
68719;DHT22;55696;52.138;5.444;2023-06-14T12:03:59;30.50;24.90
68719;DHT22;55696;52.138;5.444;2023-06-14T12:06:28;30.80;24.80
68719;DHT22;55696;52.138;5.444;2023-06-14T12:09:00;31.00;25.10
68719;DHT22;55696;52.138;5.444;2023-06-14T12:11:32;31.20;24.50
68719;DHT22;55696;52.138;5.444;2023-06-14T12:14:04;31.30;24.50
68719;DHT22;55696;52.138;5.444;2023-06-14T12:16:34;31.50;24.80
68719;DHT22;55696;52.138;5.444;2023-06-14T12:19:11;31.50;24.20
68719;DHT22;55696;52.138;5.444;2023-06-14T12:21:39;31.50;24.30
68719;DHT22;55696;52.138;5.444;2023-06-14T12:24:07;31.80;24.50
68719;DHT22;55696;52.138;5.444;2023-06-14T12:26:38;31.90;24.20
68719;DHT22;55696;52.138;5.444;2023-06-14T12:29:06;32.10;24.30
68719;DHT22;55696;52.138;5.444;2023-06-14T12:31:34;32.10;23.90
68719;DHT22;55696;52.138;5.444;2023-06-14T12:34:01;32.10;24.00
68719;DHT22;55696;52.138;5.444;2023-06-14T12:36:27;32.20;24.10
68719;DHT22;55696;52.138;5.444;2023-06-14T12:38:55;32.20;23.80
68719;DHT22;55696;52.138;5.444;2023-06-14T12:41:22;32.30;23.40
68719;DHT22;55696;52.138;5.444;2023-06-14T12:43:49;32.40;23.50
68719;DHT22;55696;52.138;5.444;2023-06-14T12:46:15;32.30;23.40
68719;DHT22;55696;52.138;5.444;2023-06-14T12:48:42;32.50;24.00
68719;DHT22;55696;52.138;5.444;2023-06-14T12:51:09;32.50;23.00
68719;DHT22;55696;52.138;5.444;2023-06-14T12:53:36;32.60;22.80
68719;DHT22;55696;52.138;5.444;2023-06-14T12:56:03;32.60;23.10
68719;DHT22;55696;52.138;5.444;2023-06-14T12:58:30;32.70;23.00
68719;DHT22;55696;52.138;5.444;2023-06-14T13:00:57;32.70;22.90
68719;DHT22;55696;52.138;5.444;2023-06-14T13:03:24;32.90;23.00
68719;DHT22;55696;52.138;5.444;2023-06-14T13:05:51;33.00;22.50
68719;DHT22;55696;52.138;5.444;2023-06-14T13:08:18;33.00;22.10
68719;DHT22;55696;52.138;5.444;2023-06-14T13:10:44;33.00;22.20
68719;DHT22;55696;52.138;5.444;2023-06-14T13:13:11;33.00;22.30
68719;DHT22;55696;52.138;5.444;2023-06-14T13:15:39;33.10;22.20
68719;DHT22;55696;52.138;5.444;2023-06-14T13:18:06;33.20;22.60
68719;DHT22;55696;52.138;5.444;2023-06-14T13:20:33;33.50;22.50
68719;DHT22;55696;52.138;5.444;2023-06-14T13:23:00;33.40;22.00
68719;DHT22;55696;52.138;5.444;2023-06-14T13:25:28;33.40;22.10
68719;DHT22;55696;52.138;5.444;2023-06-14T13:27:55;33.50;22.10
68719;DHT22;55696;52.138;5.444;2023-06-14T13:30:22;33.50;22.40
68719;DHT22;55696;52.138;5.444;2023-06-14T13:32:49;33.60;22.40
68719;DHT22;55696;52.138;5.444;2023-06-14T13:35:18;33.60;22.40
68719;DHT22;55696;52.138;5.444;2023-06-14T13:37:45;33.60;22.20
68719;DHT22;55696;52.138;5.444;2023-06-14T13:40:12;33.70;22.30
68719;DHT22;55696;52.138;5.444;2023-06-14T13:42:39;33.90;22.50
68719;DHT22;55696;52.138;5.444;2023-06-14T13:45:07;34.00;22.50
68719;DHT22;55696;52.138;5.444;2023-06-14T13:47:34;34.00;22.30
68719;DHT22;55696;52.138;5.444;2023-06-14T13:50:02;34.20;22.40
68719;DHT22;55696;52.138;5.444;2023-06-14T13:52:29;34.00;22.00
68719;DHT22;55696;52.138;5.444;2023-06-14T13:54:56;33.90;21.60
68719;DHT22;55696;52.138;5.444;2023-06-14T13:57:23;33.90;21.90
68719;DHT22;55696;52.138;5.444;2023-06-14T13:59:50;33.90;22.00
68719;DHT22;55696;52.138;5.444;2023-06-14T14:02:17;34.10;21.90
68719;DHT22;55696;52.138;5.444;2023-06-14T14:04:45;34.30;21.80
68719;DHT22;55696;52.138;5.444;2023-06-14T14:07:17;34.30;21.80
68719;DHT22;55696;52.138;5.444;2023-06-14T14:09:45;34.50;21.90
68719;DHT22;55696;52.138;5.444;2023-06-14T14:12:12;34.70;21.80
68719;DHT22;55696;52.138;5.444;2023-06-14T14:14:39;35.00;21.10
68719;DHT22;55696;52.138;5.444;2023-06-14T14:17:05;35.10;20.70
68719;DHT22;55696;52.138;5.444;2023-06-14T14:19:33;35.20;20.80
68719;DHT22;55696;52.138;5.444;2023-06-14T14:22:00;35.50;20.70
68719;DHT22;55696;52.138;5.444;2023-06-14T14:24:27;35.10;20.60
68719;DHT22;55696;52.138;5.444;2023-06-14T14:26:54;35.30;21.00
68719;DHT22;55696;52.138;5.444;2023-06-14T14:29:23;35.30;20.70
68719;DHT22;55696;52.138;5.444;2023-06-14T14:31:53;35.40;20.80
68719;DHT22;55696;52.138;5.444;2023-06-14T14:34:20;35.40;20.80
68719;DHT22;55696;52.138;5.444;2023-06-14T14:36:47;35.20;19.90
68719;DHT22;55696;52.138;5.444;2023-06-14T14:39:13;35.00;20.60
68719;DHT22;55696;52.138;5.444;2023-06-14T14:41:40;35.10;20.60
68719;DHT22;55696;52.138;5.444;2023-06-14T14:44:08;35.20;20.70
68719;DHT22;55696;52.138;5.444;2023-06-14T14:46:35;35.40;20.60
68719;DHT22;55696;52.138;5.444;2023-06-14T14:49:02;35.50;20.70
68719;DHT22;55696;52.138;5.444;2023-06-14T14:51:29;35.60;20.50
68719;DHT22;55696;52.138;5.444;2023-06-14T14:53:56;35.70;20.20
68719;DHT22;55696;52.138;5.444;2023-06-14T14:56:23;35.80;20.20
68719;DHT22;55696;52.138;5.444;2023-06-14T14:58:50;35.90;20.00
68719;DHT22;55696;52.138;5.444;2023-06-14T15:01:17;35.90;19.80
68719;DHT22;55696;52.138;5.444;2023-06-14T15:03:44;35.90;19.90
68719;DHT22;55696;52.138;5.444;2023-06-14T15:06:25;35.90;19.50
68719;DHT22;55696;52.138;5.444;2023-06-14T15:08:52;35.90;19.70
68719;DHT22;55696;52.138;5.444;2023-06-14T15:11:19;35.90;20.20
68719;DHT22;55696;52.138;5.444;2023-06-14T15:13:47;36.10;19.60
68719;DHT22;55696;52.138;5.444;2023-06-14T15:16:14;36.10;19.10
68719;DHT22;55696;52.138;5.444;2023-06-14T15:18:41;36.20;19.30
68719;DHT22;55696;52.138;5.444;2023-06-14T15:21:07;36.30;19.30
68719;DHT22;55696;52.138;5.444;2023-06-14T15:23:34;36.30;19.00
68719;DHT22;55696;52.138;5.444;2023-06-14T15:26:01;36.10;19.50
68719;DHT22;55696;52.138;5.444;2023-06-14T15:28:28;36.10;19.70
68719;DHT22;55696;52.138;5.444;2023-06-14T15:30:55;36.20;19.70
68719;DHT22;55696;52.138;5.444;2023-06-14T15:33:23;36.30;19.60
68719;DHT22;55696;52.138;5.444;2023-06-14T15:35:50;36.20;19.50
68719;DHT22;55696;52.138;5.444;2023-06-14T15:38:17;36.20;19.80
68719;DHT22;55696;52.138;5.444;2023-06-14T15:40:43;36.20;19.90
68719;DHT22;55696;52.138;5.444;2023-06-14T15:43:10;36.40;19.90
68719;DHT22;55696;52.138;5.444;2023-06-14T15:45:37;36.20;19.80
68719;DHT22;55696;52.138;5.444;2023-06-14T15:48:04;36.30;19.60
68719;DHT22;55696;52.138;5.444;2023-06-14T15:50:32;36.10;19.80
68719;DHT22;55696;52.138;5.444;2023-06-14T15:52:58;36.10;19.80
68719;DHT22;55696;52.138;5.444;2023-06-14T15:55:25;36.00;20.00
68719;DHT22;55696;52.138;5.444;2023-06-14T15:57:52;36.00;19.80
68719;DHT22;55696;52.138;5.444;2023-06-14T16:00:19;36.10;19.70
68719;DHT22;55696;52.138;5.444;2023-06-14T16:02:47;36.20;20.10